createdAt,value
2019-03-08T00:00:53.922Z,8.60
2019-03-08T00:04:01.535Z,10.03
2019-03-08T00:07:09.566Z,11.23
2019-03-08T00:10:17.278Z,8.03
2019-03-08T00:13:25.385Z,8.63
2019-03-08T00:16:32.903Z,12.00
2019-03-08T00:19:42.866Z,13.50
2019-03-08T00:22:50.606Z,12.93
2019-03-08T00:25:58.105Z,15.67
2019-03-08T00:29:05.761Z,16.37
2019-03-08T00:32:14.461Z,14.20
2019-03-08T00:35:22.008Z,6.73
2019-03-08T00:38:29.513Z,10.20
2019-03-08T00:41:37.072Z,11.13
2019-03-08T00:44:44.643Z,13.40
2019-03-08T00:47:52.278Z,8.03
2019-03-08T00:50:59.854Z,5.50
2019-03-08T00:54:07.368Z,4.47
2019-03-08T00:57:15.218Z,3.77
2019-03-08T01:00:23.148Z,3.57
2019-03-08T01:03:30.744Z,3.27
2019-03-08T01:06:38.269Z,4.90
2019-03-08T01:09:45.846Z,3.93
2019-03-08T01:12:53.537Z,4.07
2019-03-08T01:16:01.067Z,4.90
2019-03-08T01:19:08.871Z,4.30
2019-03-08T01:22:17.831Z,5.03
2019-03-08T01:25:25.481Z,4.70
2019-03-08T01:28:34.300Z,4.03
2019-03-08T01:31:42.035Z,4.67
2019-03-08T01:34:49.700Z,5.37
2019-03-08T01:37:57.262Z,5.10
2019-03-08T01:41:04.961Z,5.23
2019-03-08T01:44:12.858Z,5.37
2019-03-08T01:47:22.616Z,4.63
2019-03-08T01:50:30.110Z,4.10
2019-03-08T01:53:39.119Z,4.63
2019-03-08T01:56:46.936Z,4.50
2019-03-08T01:59:55.756Z,6.27
2019-03-08T02:03:03.526Z,6.10
2019-03-08T02:06:11.078Z,7.20
2019-03-08T02:09:18.742Z,5.13
2019-03-08T02:12:26.362Z,5.50
2019-03-08T02:15:33.923Z,5.93
2019-03-08T02:18:41.507Z,7.07
2019-03-08T02:21:49.072Z,7.20
2019-03-08T02:24:56.660Z,6.20
2019-03-08T02:28:04.315Z,7.00
2019-03-08T02:31:13.448Z,5.70
2019-03-08T02:34:21.066Z,7.60
2019-03-08T02:37:28.678Z,7.70
2019-03-08T02:40:37.705Z,3.90
2019-03-08T02:43:45.216Z,5.67
2019-03-08T02:46:53.090Z,5.40
2019-03-08T02:50:00.699Z,7.77
2019-03-08T02:53:08.210Z,7.07
2019-03-08T02:56:15.794Z,6.10
2019-03-08T02:59:23.446Z,9.70
2019-03-08T03:02:31.004Z,6.93
2019-03-08T03:05:38.944Z,7.13
2019-03-08T03:08:47.838Z,8.77
2019-03-08T03:11:56.530Z,6.83
2019-03-08T03:15:04.911Z,9.83
2019-03-08T03:18:13.503Z,8.80
2019-03-08T03:21:21.172Z,6.63
2019-03-08T03:24:28.975Z,6.53
2019-03-08T03:27:36.574Z,5.80
2019-03-08T03:30:45.234Z,6.63
2019-03-08T03:33:53.026Z,8.57
2019-03-08T03:37:00.617Z,7.80
2019-03-08T03:40:09.562Z,5.37
2019-03-08T03:43:17.088Z,4.13
2019-03-08T03:46:24.805Z,5.43
2019-03-08T03:49:32.436Z,4.70
2019-03-08T03:52:40.119Z,5.30
2019-03-08T03:55:47.734Z,4.97
2019-03-08T03:58:55.212Z,5.53
2019-03-08T04:02:02.725Z,7.50
2019-03-08T04:05:10.378Z,7.57
2019-03-08T04:08:18.005Z,8.27
2019-03-08T04:11:25.541Z,9.00
2019-03-08T04:14:35.217Z,8.23
2019-03-08T04:17:42.786Z,7.47
2019-03-08T04:20:50.323Z,8.97
2019-03-08T04:23:57.845Z,9.30
2019-03-08T04:27:05.492Z,8.80
2019-03-08T04:30:14.930Z,8.60
2019-03-08T04:33:23.652Z,8.98
2019-03-08T04:36:31.185Z,8.37
2019-03-08T04:39:38.718Z,9.80
2019-03-08T04:42:46.314Z,11.00
2019-03-08T04:45:54.137Z,10.53
2019-03-08T04:49:01.707Z,7.57
2019-03-08T04:52:09.793Z,10.80
2019-03-08T04:55:18.253Z,10.80
2019-03-08T04:58:26.232Z,13.53
2019-03-08T05:01:34.005Z,4.87
2019-03-08T05:04:41.550Z,7.20
2019-03-08T05:07:49.178Z,8.07
2019-03-08T05:10:56.766Z,7.73
2019-03-08T05:14:04.246Z,8.27
2019-03-08T05:17:11.764Z,7.27
2019-03-08T05:20:20.056Z,11.10
2019-03-08T05:23:27.592Z,9.73
2019-03-08T05:26:35.193Z,10.90
2019-03-08T05:29:42.800Z,9.93
2019-03-08T05:32:50.324Z,9.47
2019-03-08T05:35:57.888Z,10.27
2019-03-08T05:39:09.672Z,6.70
2019-03-08T05:42:17.378Z,10.03
2019-03-08T05:45:24.876Z,8.33
2019-03-08T05:48:32.388Z,9.53
2019-03-08T05:51:39.874Z,8.30
2019-03-08T05:54:47.373Z,8.30
2019-03-08T05:57:55.976Z,9.30
2019-03-08T06:01:03.476Z,5.77
2019-03-08T06:04:11.338Z,6.93
2019-03-08T06:07:19.160Z,7.30
2019-03-08T06:10:34.066Z,6.00
2019-03-08T06:13:42.039Z,7.80
2019-03-08T06:16:49.568Z,6.80
2019-03-08T06:19:57.127Z,7.60
2019-03-08T06:23:04.832Z,8.40
2019-03-08T06:26:12.515Z,8.20
2019-03-08T06:29:20.121Z,7.20
2019-03-08T06:32:27.568Z,5.93
2019-03-08T06:35:35.236Z,7.33
2019-03-08T06:38:43.158Z,6.10
2019-03-08T06:41:51.524Z,5.43
2019-03-08T06:44:59.244Z,7.50
2019-03-08T06:48:06.778Z,8.43
2019-03-08T06:51:14.365Z,7.20
2019-03-08T06:54:21.921Z,8.30
2019-03-08T06:57:29.420Z,7.83
2019-03-08T07:00:58.858Z,7.10
2019-03-08T07:04:06.448Z,7.63
2019-03-08T07:07:14.046Z,6.50
2019-03-08T07:10:21.620Z,5.90
2019-03-08T07:13:29.267Z,5.03
2019-03-08T07:16:38.944Z,5.77
2019-03-08T07:20:00.022Z,5.03
2019-03-08T07:23:28.159Z,7.17
2019-03-08T07:26:47.485Z,5.13
2019-03-08T07:30:23.085Z,3.63
2019-03-08T07:33:59.163Z,5.40
2019-03-08T07:37:24.250Z,6.80
2019-03-08T07:40:53.259Z,8.50
2019-03-08T07:44:18.882Z,6.53
2019-03-08T07:47:40.551Z,6.30
2019-03-08T07:51:11.091Z,5.20
2019-03-08T07:54:40.511Z,5.80
2019-03-08T07:58:17.124Z,6.70
2019-03-08T08:01:58.355Z,6.67
2019-03-08T08:05:28.141Z,4.60
2019-03-08T08:08:52.675Z,4.57
2019-03-08T08:12:31.334Z,3.53
2019-03-08T08:16:00.432Z,3.80
2019-03-08T08:19:15.190Z,3.60
2019-03-08T08:22:44.748Z,2.97
2019-03-08T08:26:20.363Z,4.07
2019-03-08T08:29:49.585Z,5.07
2019-03-08T08:33:16.752Z,3.13
2019-03-08T08:36:43.225Z,2.37
2019-03-08T08:40:15.532Z,3.60
2019-03-08T08:43:43.531Z,3.17
2019-03-08T08:47:08.993Z,3.40
2019-03-08T08:50:25.917Z,2.30
2019-03-08T08:53:42.611Z,3.37
2019-03-08T08:56:55.923Z,2.50
2019-03-08T09:00:25.262Z,2.73
2019-03-08T09:04:00.585Z,4.97
2019-03-08T09:07:39.418Z,4.00
2019-03-08T09:10:56.040Z,3.70
2019-03-08T09:14:08.226Z,2.90
2019-03-08T09:17:46.985Z,2.90
2019-03-08T09:21:13.459Z,2.73
2019-03-08T09:24:45.943Z,5.53
2019-03-08T09:28:24.383Z,4.00
2019-03-08T09:31:54.118Z,3.00
2019-03-08T09:35:21.259Z,2.77
2019-03-08T09:38:53.637Z,2.70
2019-03-08T09:42:17.959Z,2.17
2019-03-08T09:45:33.738Z,3.43
2019-03-08T09:49:01.820Z,3.10
2019-03-08T09:52:17.169Z,2.67
2019-03-08T09:55:29.862Z,3.20
2019-03-08T09:58:52.153Z,1.80
2019-03-08T10:02:19.318Z,2.87
2019-03-08T10:05:34.426Z,2.10
2019-03-08T10:08:50.863Z,2.10
2019-03-08T10:12:18.903Z,4.87
2019-03-08T10:15:50.980Z,3.60
2019-03-08T10:19:17.379Z,3.93
2019-03-08T10:22:43.641Z,3.20
2019-03-08T10:26:18.693Z,3.83
2019-03-08T10:29:53.830Z,2.60
2019-03-08T10:33:19.695Z,2.40
2019-03-08T10:36:58.226Z,3.17
2019-03-08T10:40:28.429Z,3.73
2019-03-08T10:43:44.926Z,3.33
2019-03-08T10:47:13.590Z,2.97
2019-03-08T10:50:41.737Z,2.87
2019-03-08T10:54:26.525Z,3.70
2019-03-08T10:58:02.213Z,4.50
2019-03-08T11:01:27.681Z,2.77
2019-03-08T11:04:49.482Z,2.97
2019-03-08T11:08:18.808Z,2.13
2019-03-08T11:11:44.971Z,4.10
2019-03-08T11:15:11.769Z,4.27
2019-03-08T11:18:44.389Z,3.97
2019-03-08T11:22:16.513Z,4.67
2019-03-08T11:25:42.351Z,2.30
2019-03-08T11:29:07.447Z,5.80
2019-03-08T11:32:23.972Z,3.37
2019-03-08T11:35:56.588Z,5.10
2019-03-08T11:39:24.149Z,2.90
2019-03-08T11:42:56.791Z,4.60
2019-03-08T11:46:32.271Z,5.90
2019-03-08T11:49:57.266Z,3.30
2019-03-08T11:53:25.951Z,5.23
2019-03-08T11:57:02.502Z,5.10
2019-03-08T12:00:28.816Z,2.90
2019-03-08T12:03:53.951Z,2.90
2019-03-08T12:07:12.871Z,2.63
2019-03-08T12:10:48.259Z,2.73
2019-03-08T12:14:12.139Z,3.40
2019-03-08T12:17:42.440Z,8.10
2019-03-08T12:21:07.565Z,5.23
2019-03-08T12:24:46.529Z,4.90
2019-03-08T12:28:21.819Z,10.80
2019-03-08T12:31:57.574Z,4.27
2019-03-08T12:35:24.156Z,5.50
2019-03-08T12:38:49.415Z,5.60
2019-03-08T12:42:23.683Z,3.80
2019-03-08T12:46:02.135Z,3.37
2019-03-08T12:49:20.457Z,4.17
2019-03-08T12:52:37.347Z,4.60
2019-03-08T12:56:09.934Z,3.20
2019-03-08T12:59:45.643Z,4.03
2019-03-08T13:03:27.011Z,3.20
2019-03-08T13:06:52.359Z,3.10
2019-03-08T13:10:10.331Z,2.50
2019-03-08T13:13:17.881Z,4.60
2019-03-08T13:16:25.421Z,4.67
2019-03-08T13:19:32.902Z,3.30
2019-03-08T13:22:40.457Z,3.57
2019-03-08T13:25:48.057Z,3.90
2019-03-08T13:28:55.616Z,2.87
2019-03-08T13:32:03.120Z,3.20
2019-03-08T13:35:11.839Z,4.60
2019-03-08T13:38:20.726Z,5.10
2019-03-08T13:41:30.079Z,5.07
2019-03-08T13:44:37.698Z,4.53
2019-03-08T13:47:46.720Z,4.13
2019-03-08T13:50:54.289Z,4.73
2019-03-08T13:54:01.786Z,8.80
2019-03-08T13:57:09.295Z,6.27
2019-03-08T14:00:17.381Z,11.23
2019-03-08T14:03:24.964Z,6.87
2019-03-08T14:06:32.541Z,9.43
2019-03-08T14:09:40.382Z,7.93
2019-03-08T14:12:48.317Z,9.80
2019-03-08T14:15:56.266Z,9.70
2019-03-08T14:19:03.849Z,7.60
2019-03-08T14:22:11.555Z,10.67
2019-03-08T14:25:19.199Z,13.60
2019-03-08T14:28:26.815Z,10.90
2019-03-08T14:32:05.911Z,11.63
2019-03-08T14:35:13.661Z,17.07
2019-03-08T14:38:21.281Z,7.70
2019-03-08T14:41:43.111Z,6.73
2019-03-08T14:45:08.859Z,12.60
2019-03-08T14:48:16.885Z,4.30
2019-03-08T14:51:24.484Z,7.27
2019-03-08T14:54:31.963Z,6.73
2019-03-08T14:57:39.586Z,5.23
2019-03-08T15:00:47.220Z,11.00
2019-03-08T15:03:56.574Z,12.27
2019-03-08T15:07:04.583Z,6.43
2019-03-08T15:10:14.528Z,6.27
2019-03-08T15:13:24.121Z,8.10
2019-03-08T15:16:31.551Z,5.73
2019-03-08T15:19:40.194Z,6.33
2019-03-08T15:22:48.273Z,6.20
2019-03-08T15:25:55.775Z,5.40
2019-03-08T15:29:03.373Z,5.40
2019-03-08T15:32:11.075Z,13.90
2019-03-08T15:35:20.379Z,7.37
2019-03-08T15:38:27.899Z,5.43
2019-03-08T15:41:35.967Z,7.10
2019-03-08T15:44:43.514Z,9.00
2019-03-08T15:47:51.016Z,8.80
2019-03-08T15:50:59.539Z,8.47
2019-03-08T15:54:07.323Z,7.80
2019-03-08T15:57:14.873Z,8.17
2019-03-08T16:00:22.616Z,9.20
2019-03-08T16:03:33.602Z,9.93
2019-03-08T16:06:39.832Z,10.00
2019-03-08T16:09:50.913Z,7.67
2019-03-08T16:12:58.825Z,7.23
2019-03-08T16:16:06.549Z,7.70
2019-03-08T16:19:14.078Z,14.40
2019-03-08T16:22:24.716Z,9.57
2019-03-08T16:25:32.051Z,12.93
2019-03-08T16:28:39.683Z,11.20
2019-03-08T16:32:11.014Z,13.47
2019-03-08T16:35:18.627Z,13.13
2019-03-08T16:38:47.924Z,16.47
2019-03-08T16:42:32.522Z,18.23
2019-03-08T16:46:04.684Z,19.67
2019-03-08T16:49:27.707Z,18.00
2019-03-08T16:52:44.692Z,15.73
2019-03-08T16:56:08.458Z,15.40
2019-03-08T16:59:37.876Z,11.77
2019-03-08T17:03:16.262Z,17.50
2019-03-08T17:06:39.076Z,14.03
2019-03-08T17:10:04.310Z,14.47
2019-03-08T17:13:26.783Z,13.40
2019-03-08T17:16:58.520Z,17.93
2019-03-08T17:20:17.254Z,16.30
2019-03-08T17:23:36.371Z,20.13
2019-03-08T17:27:08.648Z,22.90
2019-03-08T17:30:38.907Z,18.17
2019-03-08T17:34:12.018Z,17.30
2019-03-08T17:37:38.385Z,18.63
2019-03-08T17:41:07.779Z,21.17
2019-03-08T17:44:33.374Z,19.97
2019-03-08T17:47:48.256Z,26.67
2019-03-08T17:51:23.876Z,20.87
2019-03-08T17:54:52.972Z,15.50
2019-03-08T17:58:32.704Z,22.50
2019-03-08T18:02:02.151Z,29.53
2019-03-08T18:05:28.444Z,34.13
2019-03-08T18:08:52.738Z,33.90
2019-03-08T18:12:15.336Z,35.53
2019-03-08T18:15:54.522Z,32.07
2019-03-08T18:19:19.784Z,30.90
2019-03-08T18:22:49.609Z,24.10
2019-03-08T18:26:11.372Z,27.57
2019-03-08T18:29:38.810Z,23.80
2019-03-08T18:32:54.598Z,20.83
2019-03-08T18:36:13.046Z,21.37
2019-03-08T18:39:58.046Z,21.57
2019-03-08T18:43:20.652Z,26.10
2019-03-08T18:46:40.683Z,33.40
2019-03-08T18:49:56.331Z,23.53
2019-03-08T18:53:18.178Z,18.30
2019-03-08T18:56:42.434Z,18.50
2019-03-08T19:00:10.712Z,20.33
2019-03-08T19:03:35.484Z,18.30
2019-03-08T19:07:04.304Z,21.57
2019-03-08T19:10:29.873Z,15.17
2019-03-08T19:13:51.828Z,21.70
2019-03-08T19:17:17.108Z,24.17
2019-03-08T19:20:43.655Z,24.37
2019-03-08T19:24:13.951Z,27.70
2019-03-08T19:27:58.681Z,29.67
2019-03-08T19:31:15.161Z,30.87
2019-03-08T19:34:42.484Z,24.67
2019-03-08T19:38:14.783Z,30.50
2019-03-08T19:41:30.904Z,28.10
2019-03-08T19:45:04.439Z,26.50
2019-03-08T19:48:34.604Z,23.20
2019-03-08T19:51:59.420Z,26.70
2019-03-08T19:55:32.376Z,23.50
2019-03-08T19:59:24.524Z,29.93
2019-03-08T20:03:03.606Z,30.07
2019-03-08T20:06:38.455Z,26.07
2019-03-08T20:10:17.540Z,23.77
2019-03-08T20:13:46.679Z,25.00
2019-03-08T20:17:12.079Z,24.93
2019-03-08T20:20:37.956Z,22.23
2019-03-08T20:24:13.612Z,21.57
2019-03-08T20:27:55.164Z,23.07
2019-03-08T20:31:24.822Z,29.93
2019-03-08T20:34:42.206Z,32.87
2019-03-08T20:38:08.790Z,23.13
2019-03-08T20:41:27.141Z,29.07
2019-03-08T20:44:54.747Z,24.77
2019-03-08T20:48:02.494Z,13.73
2019-03-08T20:51:10.168Z,9.43
2019-03-08T20:54:17.894Z,9.60
2019-03-08T20:57:25.535Z,10.50
2019-03-08T21:00:33.187Z,11.00
2019-03-08T21:03:40.893Z,16.10
2019-03-08T21:06:48.464Z,22.00
2019-03-08T21:09:56.410Z,10.60
2019-03-08T21:13:03.971Z,9.47
2019-03-08T21:16:11.736Z,17.77
2019-03-08T21:19:20.702Z,15.57
2019-03-08T21:22:28.607Z,11.50
2019-03-08T21:25:36.523Z,10.17
2019-03-08T21:28:44.105Z,16.97
2019-03-08T21:31:51.625Z,15.40
2019-03-08T21:34:59.555Z,17.73
2019-03-08T21:38:08.011Z,19.10
2019-03-08T21:41:15.745Z,17.60
2019-03-08T21:44:23.315Z,14.37
2019-03-08T21:47:31.007Z,13.83
2019-03-08T21:50:38.688Z,15.70
2019-03-08T21:53:46.374Z,16.73
2019-03-08T21:56:53.974Z,16.87
2019-03-08T22:00:01.599Z,16.90
2019-03-08T22:03:10.701Z,22.30
2019-03-08T22:06:18.280Z,25.30
2019-03-08T22:09:34.574Z,24.87
2019-03-08T22:12:43.389Z,19.40
2019-03-08T22:15:51.165Z,18.67
2019-03-08T22:18:58.638Z,16.87
2019-03-08T22:22:06.230Z,16.10
2019-03-08T22:25:13.910Z,15.30
2019-03-08T22:28:21.560Z,14.27
2019-03-08T22:31:29.089Z,13.60
2019-03-08T22:34:36.565Z,13.40
2019-03-08T22:37:44.034Z,12.53
2019-03-08T22:40:53.234Z,14.50
2019-03-08T22:44:00.811Z,19.20
2019-03-08T22:47:08.227Z,18.37
2019-03-08T22:50:15.743Z,17.97
2019-03-08T22:53:23.491Z,21.47
2019-03-08T22:56:30.986Z,19.77
2019-03-08T22:59:38.430Z,19.20
2019-03-08T23:02:46.028Z,21.80
2019-03-08T23:05:53.698Z,22.87
2019-03-08T23:09:01.178Z,18.40
2019-03-08T23:12:10.259Z,20.00
2019-03-08T23:15:17.825Z,17.90
2019-03-08T23:18:25.298Z,19.77
2019-03-08T23:21:32.731Z,17.07
2019-03-08T23:24:40.269Z,16.40
2019-03-08T23:27:52.747Z,21.00
2019-03-08T23:31:04.770Z,20.97
2019-03-08T23:34:12.314Z,18.27
2019-03-08T23:37:19.702Z,24.67
2019-03-08T23:40:27.148Z,21.50
2019-03-08T23:43:34.590Z,18.53
2019-03-08T23:46:42.058Z,17.70
2019-03-08T23:49:49.666Z,19.60
2019-03-08T23:52:57.144Z,20.67
2019-03-08T23:56:06.144Z,25.53
2019-03-08T23:59:13.582Z,24.80
